createdAt,value
2018-05-01T00:22:54.451Z,9.80
2018-05-01T00:25:23.594Z,10.00
2018-05-01T00:27:52.018Z,10.00
2018-05-01T00:30:20.443Z,10.10
2018-05-01T00:32:48.827Z,10.20
2018-05-01T00:35:17.285Z,10.20
2018-05-01T00:37:45.695Z,10.20
2018-05-01T00:40:14.286Z,10.30
2018-05-01T00:42:42.860Z,10.30
2018-05-01T00:45:13.049Z,10.40
2018-05-01T00:47:41.483Z,10.40
2018-05-01T00:50:10.071Z,10.40
2018-05-01T00:52:44.199Z,10.50
2018-05-01T00:55:12.612Z,10.50
2018-05-01T00:57:41.050Z,10.50
2018-05-01T01:00:10.374Z,10.60
2018-05-01T01:02:38.966Z,10.60
2018-05-01T01:05:07.538Z,10.60
2018-05-01T01:07:36.898Z,10.70
2018-05-01T01:10:05.363Z,10.70
2018-05-01T01:12:34.560Z,10.80
2018-05-01T01:15:03.046Z,10.80
2018-05-01T01:17:31.635Z,10.90
2018-05-01T01:20:00.015Z,11.00
2018-05-01T01:22:29.534Z,11.10
2018-05-01T01:24:58.118Z,11.10
2018-05-01T01:27:26.523Z,11.10
2018-05-01T01:29:54.927Z,11.10
2018-05-01T01:32:23.528Z,11.20
2018-05-01T01:34:51.927Z,11.20
2018-05-01T01:37:19.886Z,11.20
2018-05-01T01:39:47.988Z,11.20
2018-05-01T01:42:15.883Z,11.20
2018-05-01T01:44:43.767Z,11.10
2018-05-01T01:47:12.004Z,11.20
2018-05-01T01:49:40.755Z,11.20
2018-05-01T01:52:08.802Z,11.20
2018-05-01T01:54:37.507Z,11.20
2018-05-01T01:57:05.495Z,11.20
2018-05-01T01:59:35.081Z,11.20
2018-05-01T02:02:03.033Z,11.20
2018-05-01T02:04:31.124Z,11.20
2018-05-01T02:06:59.838Z,11.30
2018-05-01T02:09:27.923Z,11.20
2018-05-01T02:11:55.851Z,11.20
2018-05-01T02:14:23.778Z,11.20
2018-05-01T02:16:51.803Z,11.20
2018-05-01T02:19:19.699Z,11.10
2018-05-01T02:21:47.633Z,11.10
2018-05-01T02:24:15.630Z,11.10
2018-05-01T02:26:43.842Z,11.10
2018-05-01T02:29:11.874Z,11.10
2018-05-01T02:31:39.951Z,11.10
2018-05-01T02:34:08.062Z,11.10
2018-05-01T02:36:35.967Z,11.20
2018-05-01T02:39:03.898Z,11.10
2018-05-01T02:41:31.775Z,11.00
2018-05-01T02:43:59.851Z,11.00
2018-05-01T02:46:27.915Z,11.10
2018-05-01T02:48:55.999Z,11.10
2018-05-01T02:51:23.919Z,11.10
2018-05-01T02:53:51.995Z,11.10
2018-05-01T02:56:20.659Z,11.20
2018-05-01T02:58:48.611Z,11.20
2018-05-01T03:01:18.149Z,11.20
2018-05-01T03:03:46.046Z,11.20
2018-05-01T03:06:14.308Z,11.20
2018-05-01T03:08:42.984Z,11.30
2018-05-01T03:11:11.067Z,11.30
2018-05-01T03:13:39.155Z,11.40
2018-05-01T03:16:07.043Z,11.40
2018-05-01T03:18:34.967Z,11.50
2018-05-01T03:21:02.903Z,11.50
2018-05-01T03:23:30.804Z,11.50
2018-05-01T03:25:58.787Z,11.50
2018-05-01T03:28:27.491Z,11.40
2018-05-01T03:30:55.387Z,11.40
2018-05-01T03:33:24.090Z,11.20
2018-05-01T03:35:52.011Z,11.30
2018-05-01T03:38:19.907Z,11.30
2018-05-01T03:40:47.806Z,11.30
2018-05-01T03:43:16.463Z,11.20
2018-05-01T03:45:44.394Z,11.20
2018-05-01T03:48:12.322Z,11.20
2018-05-01T03:53:20.265Z,11.10
2018-05-01T03:55:48.964Z,11.20
2018-05-01T03:58:17.739Z,11.20
2018-05-01T04:00:46.436Z,11.30
2018-05-01T04:03:15.111Z,11.20
2018-05-01T04:05:43.035Z,11.20
2018-05-01T04:08:11.750Z,11.00
2018-05-01T04:10:39.631Z,11.00
2018-05-01T04:13:08.377Z,10.70
2018-05-01T04:15:36.276Z,10.70
2018-05-01T04:18:04.176Z,10.70
2018-05-01T04:20:32.067Z,10.80
2018-05-01T04:22:59.998Z,10.70
2018-05-01T04:25:28.155Z,10.80
2018-05-01T04:27:55.999Z,10.70
2018-05-01T04:30:24.090Z,10.60
2018-05-01T04:32:51.994Z,10.60
2018-05-01T04:35:19.955Z,10.40
2018-05-01T04:37:47.854Z,10.50
2018-05-01T04:40:15.935Z,10.50
2018-05-01T04:42:43.826Z,10.50
2018-05-01T04:45:11.749Z,10.60
2018-05-01T04:47:39.647Z,10.50
2018-05-01T04:50:07.591Z,10.50
2018-05-01T04:52:35.482Z,10.40
2018-05-01T04:55:03.491Z,10.30
2018-05-01T04:57:31.395Z,10.30
2018-05-01T04:59:59.323Z,10.20
2018-05-01T05:02:28.010Z,10.20
2018-05-01T05:04:55.983Z,10.10
2018-05-01T05:07:23.884Z,10.10
2018-05-01T05:09:51.815Z,10.10
2018-05-01T05:12:19.783Z,10.10
2018-05-01T05:14:47.871Z,9.90
2018-05-01T05:17:16.001Z,10.00
2018-05-01T05:19:43.979Z,10.00
2018-05-01T05:22:12.823Z,10.00
2018-05-01T05:24:40.766Z,10.00
2018-05-01T05:27:09.607Z,10.00
2018-05-01T05:29:38.310Z,10.00
2018-05-01T05:32:06.384Z,10.00
2018-05-01T05:34:34.339Z,10.10
2018-05-01T05:37:02.431Z,10.10
2018-05-01T05:39:30.375Z,10.10
2018-05-01T05:41:58.271Z,10.30
2018-05-01T05:44:26.188Z,10.40
2018-05-01T05:46:56.728Z,10.30
2018-05-01T05:49:25.586Z,10.30
2018-05-01T05:51:53.695Z,10.30
2018-05-01T05:54:21.734Z,10.30
2018-05-01T05:56:49.530Z,10.30
2018-05-01T05:59:17.521Z,10.30
2018-05-01T06:01:46.375Z,10.30
2018-05-01T06:04:14.779Z,10.30
2018-05-01T06:06:43.445Z,10.50
2018-05-01T06:09:11.391Z,10.50
2018-05-01T06:11:39.295Z,10.60
2018-05-01T06:14:07.202Z,10.70
2018-05-01T06:16:35.943Z,11.20
2018-05-01T06:19:04.651Z,11.30
2018-05-01T06:21:32.582Z,11.20
2018-05-01T06:24:00.503Z,11.40
2018-05-01T06:26:28.446Z,11.40
2018-05-01T06:28:56.359Z,11.30
2018-05-01T06:31:24.495Z,11.20
2018-05-01T06:33:52.386Z,11.10
2018-05-01T06:36:21.086Z,11.10
2018-05-01T06:38:49.806Z,11.00
2018-05-01T06:41:18.672Z,11.00
2018-05-01T06:43:46.557Z,11.00
2018-05-01T06:46:15.243Z,11.00
2018-05-01T06:51:07.730Z,11.00
2018-05-01T06:53:35.690Z,11.00
2018-05-01T06:56:04.654Z,11.10
2018-05-01T06:58:32.559Z,11.10
2018-05-01T07:01:00.673Z,11.20
2018-05-01T07:03:29.518Z,11.20
2018-05-01T07:05:58.219Z,11.30
2018-05-01T07:08:26.157Z,11.30
2018-05-01T07:10:54.081Z,11.40
2018-05-01T07:13:22.786Z,11.40
2018-05-01T07:15:52.192Z,11.50
2018-05-01T07:18:20.080Z,11.50
2018-05-01T07:20:48.937Z,11.70
2018-05-01T07:23:16.868Z,11.60
2018-05-01T07:25:44.744Z,11.80
2018-05-01T07:28:12.668Z,11.90
2018-05-01T07:30:41.530Z,12.10
2018-05-01T07:33:10.243Z,12.40
2018-05-01T07:35:39.548Z,13.00
2018-05-01T07:38:07.438Z,12.90
2018-05-01T07:40:35.515Z,13.90
2018-05-01T07:43:04.195Z,15.50
2018-05-01T07:45:32.163Z,15.50
2018-05-01T07:48:00.234Z,16.10
2018-05-01T07:50:28.307Z,16.80
2018-05-01T07:52:56.196Z,17.40
2018-05-01T07:55:24.874Z,17.90
2018-05-01T07:57:52.802Z,17.90
2018-05-01T08:00:20.770Z,17.90
2018-05-01T08:02:49.556Z,18.10
2018-05-01T08:05:18.391Z,18.20
2018-05-01T08:07:46.262Z,18.20
2018-05-01T08:10:14.327Z,18.40
2018-05-01T08:12:42.226Z,18.50
2018-05-01T08:15:10.275Z,18.80
2018-05-01T08:17:38.332Z,18.70
2018-05-01T08:20:06.275Z,18.30
2018-05-01T08:22:34.939Z,18.60
2018-05-01T08:25:02.978Z,18.00
2018-05-01T08:27:31.087Z,19.00
2018-05-01T08:29:59.130Z,19.40
2018-05-01T08:32:27.667Z,19.20
2018-05-01T08:34:55.604Z,19.40
2018-05-01T08:37:23.686Z,19.40
2018-05-01T08:39:51.596Z,19.40
2018-05-01T08:42:19.634Z,19.30
2018-05-01T08:44:47.507Z,19.50
2018-05-01T08:47:15.379Z,19.80
2018-05-01T08:49:43.431Z,20.00
2018-05-01T08:52:12.269Z,20.60
2018-05-01T08:54:40.164Z,20.50
2018-05-01T08:57:08.050Z,20.90
2018-05-01T08:59:36.371Z,21.10
2018-05-01T09:02:04.423Z,21.30
2018-05-01T09:04:32.295Z,21.30
2018-05-01T09:07:02.501Z,21.20
2018-05-01T09:09:31.185Z,20.50
2018-05-01T09:11:59.211Z,20.50
2018-05-01T09:14:28.059Z,20.50
2018-05-01T09:16:56.006Z,20.50
2018-05-01T09:19:23.927Z,20.00
2018-05-01T09:21:51.886Z,19.60
2018-05-01T09:24:20.515Z,19.40
2018-05-01T09:26:48.439Z,19.40
2018-05-01T09:29:17.079Z,18.80
2018-05-01T09:31:45.872Z,18.30
2018-05-01T09:34:13.883Z,18.20
2018-05-01T09:36:41.847Z,18.00
2018-05-01T09:39:09.718Z,17.90
2018-05-01T09:41:37.619Z,18.10
2018-05-01T09:44:06.299Z,17.50
2018-05-01T09:46:34.419Z,17.50
2018-05-01T09:49:02.307Z,17.80
2018-05-01T09:51:30.511Z,18.20
2018-05-01T09:53:58.896Z,18.30
2018-05-01T09:56:27.440Z,18.20
2018-05-01T10:01:36.490Z,18.70
2018-05-01T10:04:04.895Z,19.30
2018-05-01T10:06:33.447Z,19.60
2018-05-01T10:09:01.836Z,19.50
2018-05-01T10:11:30.235Z,19.50
2018-05-01T10:13:59.347Z,19.30
2018-05-01T10:16:27.731Z,18.90
2018-05-01T10:18:56.935Z,18.70
2018-05-01T10:21:25.507Z,18.70
2018-05-01T10:23:53.874Z,18.20
2018-05-01T10:26:22.242Z,18.00
2018-05-01T10:28:50.648Z,17.60
2018-05-01T10:31:19.088Z,17.10
2018-05-01T10:33:48.239Z,16.70
2018-05-01T10:36:17.339Z,16.70
2018-05-01T10:38:45.747Z,16.70
2018-05-01T10:41:14.086Z,16.60
2018-05-01T10:43:42.486Z,16.50
2018-05-01T10:46:10.861Z,16.60
2018-05-01T10:48:40.668Z,16.80
2018-05-01T10:51:09.799Z,16.90
2018-05-01T10:53:39.051Z,16.80
2018-05-01T10:56:08.199Z,16.90
2018-05-01T10:58:38.133Z,16.70
2018-05-01T11:01:07.339Z,16.70
2018-05-01T11:03:35.735Z,16.70
2018-05-01T11:06:04.151Z,16.90
2018-05-01T11:08:32.555Z,17.10
2018-05-01T11:11:00.921Z,17.30
2018-05-01T11:13:30.081Z,17.00
2018-05-01T11:15:58.447Z,17.00
2018-05-01T11:18:26.837Z,16.90
2018-05-01T11:23:38.149Z,16.20
2018-05-01T11:26:07.360Z,15.90
2018-05-01T11:28:35.749Z,15.90
2018-05-01T11:31:04.302Z,15.70
2018-05-01T11:33:32.766Z,15.60
2018-05-01T11:36:01.102Z,15.50
2018-05-01T11:38:29.454Z,15.30
2018-05-01T11:40:57.875Z,15.40
2018-05-01T11:43:26.239Z,15.40
2018-05-01T11:45:55.351Z,15.30
2018-05-01T11:48:25.335Z,15.10
2018-05-01T11:50:53.700Z,14.90
2018-05-01T11:53:22.135Z,14.90
2018-05-01T11:55:51.307Z,14.70
2018-05-01T11:58:19.657Z,14.70
2018-05-01T12:00:48.866Z,14.60
2018-05-01T12:03:17.255Z,14.60
2018-05-01T12:05:45.627Z,14.80
2018-05-01T12:08:14.027Z,15.00
2018-05-01T12:10:43.063Z,15.00
2018-05-01T12:13:11.477Z,14.80
2018-05-01T12:15:39.887Z,14.80
2018-05-01T12:18:08.423Z,14.90
2018-05-01T12:20:36.816Z,15.10
2018-05-01T12:23:05.415Z,15.20
2018-05-01T12:25:33.972Z,15.00
2018-05-01T12:28:02.547Z,14.80
2018-05-01T12:30:31.143Z,14.80
2018-05-01T12:33:00.755Z,14.90
2018-05-01T12:35:29.131Z,14.90
2018-05-01T12:37:57.698Z,14.80
2018-05-01T12:40:26.279Z,14.80
2018-05-01T12:42:55.405Z,14.50
2018-05-01T12:45:24.706Z,14.40
2018-05-01T12:47:53.095Z,14.40
2018-05-01T12:50:22.398Z,14.40
2018-05-01T12:52:51.727Z,14.40
2018-05-01T12:55:20.147Z,14.30
2018-05-01T12:57:48.641Z,14.40
2018-05-01T13:00:17.775Z,14.20
2018-05-01T13:02:46.158Z,14.20
2018-05-01T13:05:15.581Z,14.00
2018-05-01T13:07:44.060Z,14.00
2018-05-01T13:10:12.456Z,13.90
2018-05-01T13:12:41.044Z,13.80
2018-05-01T13:15:09.511Z,13.70
2018-05-01T13:17:37.920Z,13.70
2018-05-01T13:20:06.593Z,13.70
2018-05-01T13:22:35.021Z,13.60
2018-05-01T13:25:03.424Z,13.50
2018-05-01T13:27:31.870Z,13.60
2018-05-01T13:30:00.258Z,13.60
2018-05-01T13:32:28.826Z,13.60
2018-05-01T13:34:57.231Z,13.50
2018-05-01T13:37:25.787Z,13.50
2018-05-01T13:39:55.011Z,13.30
2018-05-01T13:42:23.692Z,13.30
2018-05-01T13:44:52.059Z,13.30
2018-05-01T13:47:20.435Z,13.10
2018-05-01T13:49:49.376Z,13.10
2018-05-01T13:52:17.920Z,13.10
2018-05-01T13:54:46.287Z,13.00
2018-05-01T13:57:15.509Z,12.90
2018-05-01T13:59:44.003Z,12.90
2018-05-01T14:02:13.335Z,13.00
2018-05-01T14:04:41.743Z,13.00
2018-05-01T14:07:10.276Z,13.00
2018-05-01T14:09:38.642Z,13.00
2018-05-01T14:12:07.040Z,13.00
2018-05-01T14:14:35.434Z,13.00
2018-05-01T14:17:03.991Z,13.10
2018-05-01T14:19:33.180Z,13.10
2018-05-01T14:22:01.544Z,13.10
2018-05-01T14:24:29.942Z,13.00
2018-05-01T14:26:58.346Z,12.90
2018-05-01T14:29:28.317Z,12.90
2018-05-01T14:31:57.573Z,12.70
2018-05-01T14:34:26.025Z,12.60
2018-05-01T14:36:55.200Z,12.40
2018-05-01T14:39:23.566Z,12.40
2018-05-01T14:41:52.067Z,12.40
2018-05-01T14:44:20.443Z,12.30
2018-05-01T14:46:48.967Z,12.20
2018-05-01T14:49:18.122Z,12.20
2018-05-01T14:51:48.369Z,12.20
2018-05-01T14:54:16.735Z,12.20
2018-05-01T14:56:45.118Z,12.10
2018-05-01T14:59:13.496Z,12.00
2018-05-01T15:01:41.890Z,12.00
2018-05-01T15:04:10.282Z,11.90
2018-05-01T15:06:38.647Z,11.80
2018-05-01T15:09:07.246Z,11.80
2018-05-01T15:11:35.798Z,11.70
2018-05-01T15:14:05.649Z,11.60
2018-05-01T15:16:34.863Z,11.60
2018-05-01T15:19:03.247Z,11.60
2018-05-01T15:21:31.662Z,11.50
2018-05-01T15:24:00.025Z,11.60
2018-05-01T15:26:28.417Z,11.60
2018-05-01T15:28:56.787Z,11.50
2018-05-01T15:31:27.199Z,11.20
2018-05-01T15:33:55.599Z,11.20
2018-05-01T15:36:24.139Z,11.10
2018-05-01T15:38:52.526Z,11.10
2018-05-01T15:41:20.935Z,11.00
2018-05-01T15:43:49.310Z,10.80
2018-05-01T15:46:17.680Z,10.80
2018-05-01T15:48:46.835Z,10.60
2018-05-01T15:51:15.273Z,10.50
2018-05-01T15:53:46.343Z,10.40
2018-05-01T15:56:15.454Z,10.30
2018-05-01T15:58:43.816Z,10.20
2018-05-01T16:01:12.228Z,10.20
2018-05-01T16:03:40.632Z,10.10
2018-05-01T16:06:08.994Z,10.00
2018-05-01T16:08:37.359Z,9.90
2018-05-01T16:11:05.770Z,9.80
2018-05-01T16:13:34.943Z,9.70
2018-05-01T16:16:03.768Z,9.60
2018-05-01T16:18:32.114Z,9.60
2018-05-01T16:21:00.502Z,9.60
2018-05-01T16:23:29.857Z,10.50
2018-05-01T16:25:59.007Z,9.60
2018-05-01T16:28:28.323Z,9.60
2018-05-01T16:30:57.171Z,9.60
2018-05-01T16:33:26.212Z,9.60
2018-05-01T16:35:54.633Z,9.60
2018-05-01T16:38:23.011Z,9.60
2018-05-01T16:40:52.183Z,9.50
2018-05-01T16:43:21.483Z,9.50
2018-05-01T16:45:50.811Z,9.50
2018-05-01T16:48:19.162Z,9.50
2018-05-01T16:50:47.523Z,9.50
2018-05-01T16:53:15.894Z,9.50
2018-05-01T16:55:44.313Z,9.50
2018-05-01T16:58:12.681Z,9.50
2018-05-01T17:00:41.071Z,9.50
2018-05-01T17:03:10.219Z,9.40
2018-05-01T17:05:38.754Z,9.40
2018-05-01T17:08:07.308Z,9.30
2018-05-01T17:10:36.510Z,9.30
2018-05-01T17:13:06.160Z,9.20
2018-05-01T17:15:34.530Z,9.20
2018-05-01T17:20:46.813Z,9.10
2018-05-01T17:23:15.364Z,9.10
2018-05-01T17:25:44.660Z,9.00
2018-05-01T17:28:13.919Z,8.90
2018-05-01T17:30:43.079Z,8.90
2018-05-01T17:33:12.374Z,8.80
2018-05-01T17:35:40.758Z,8.80
2018-05-01T17:38:09.868Z,8.70
2018-05-01T17:40:38.233Z,8.70
2018-05-01T17:43:07.371Z,8.80
2018-05-01T17:45:37.251Z,8.80
2018-05-01T17:48:05.611Z,8.80
2018-05-01T17:50:34.170Z,8.80
2018-05-01T17:53:02.722Z,8.80
2018-05-01T17:55:31.823Z,8.70
2018-05-01T17:58:01.143Z,8.70
2018-05-01T18:00:29.519Z,8.60
2018-05-01T18:02:57.896Z,8.70
2018-05-01T18:05:26.415Z,8.60
2018-05-01T18:07:56.367Z,8.60
2018-05-01T18:10:24.855Z,8.50
2018-05-01T18:12:53.221Z,8.50
2018-05-01T18:15:21.815Z,8.40
2018-05-01T18:17:50.352Z,8.40
2018-05-01T18:20:18.782Z,8.40
2018-05-01T18:22:47.253Z,8.30
2018-05-01T18:25:15.795Z,8.30
2018-05-01T18:27:44.323Z,8.30
2018-05-01T18:30:12.700Z,8.20
2018-05-01T18:32:41.255Z,8.20
2018-05-01T18:35:09.714Z,8.20
2018-05-01T18:37:38.258Z,8.20
2018-05-01T18:40:06.646Z,8.20
2018-05-01T18:42:35.105Z,8.10
2018-05-01T18:45:03.466Z,8.20
2018-05-01T18:47:31.844Z,8.10
2018-05-01T18:50:00.984Z,8.10
2018-05-01T18:52:30.687Z,8.10
2018-05-01T18:54:59.079Z,8.10
2018-05-01T18:57:27.442Z,8.10
2018-05-01T18:59:55.924Z,8.10
2018-05-01T19:02:24.333Z,8.20
2018-05-01T19:04:53.315Z,8.20
2018-05-01T19:07:21.903Z,8.10
2018-05-01T19:09:50.304Z,8.10
2018-05-01T19:12:18.815Z,8.10
2018-05-01T19:14:48.726Z,8.10
2018-05-01T19:17:17.276Z,8.10
2018-05-01T19:19:45.688Z,8.10
2018-05-01T19:22:14.148Z,8.00
2018-05-01T19:24:43.304Z,8.10
2018-05-01T19:27:12.237Z,8.00
2018-05-01T19:29:41.476Z,8.10
2018-05-01T19:32:09.841Z,8.10
2018-05-01T19:34:38.276Z,8.00
2018-05-01T19:37:06.815Z,8.00
2018-05-01T19:39:35.285Z,8.00
2018-05-01T19:44:38.341Z,8.00
2018-05-01T19:47:06.731Z,8.10
2018-05-01T19:49:35.189Z,8.10
2018-05-01T19:52:03.721Z,8.10
2018-05-01T19:54:32.132Z,8.10
2018-05-01T19:57:00.675Z,8.10
2018-05-01T19:59:29.068Z,8.10
2018-05-01T20:01:57.619Z,8.10
2018-05-01T20:04:26.201Z,8.00
2018-05-01T20:06:54.599Z,8.00
2018-05-01T20:09:24.343Z,8.00
2018-05-01T20:11:53.482Z,8.10
2018-05-01T20:14:22.602Z,8.10
2018-05-01T20:16:50.961Z,8.10
2018-05-01T20:19:20.108Z,8.10
2018-05-01T20:21:49.399Z,8.10
2018-05-01T20:24:17.750Z,8.10
2018-05-01T20:26:46.166Z,8.10
2018-05-01T20:29:14.547Z,8.10
2018-05-01T20:31:45.743Z,8.10
2018-05-01T20:34:15.205Z,8.10
2018-05-01T20:36:43.547Z,8.00
2018-05-01T20:39:12.711Z,8.00
2018-05-01T20:41:41.326Z,8.00
2018-05-01T20:44:09.706Z,8.00
2018-05-01T20:46:38.798Z,8.00
2018-05-01T20:49:07.391Z,8.10
2018-05-01T20:51:35.943Z,8.10
2018-05-01T20:54:04.691Z,8.20
2018-05-01T20:56:33.255Z,8.20
2018-05-01T20:59:01.829Z,8.20
2018-05-01T21:01:30.188Z,8.20
2018-05-01T21:03:58.595Z,8.10
2018-05-01T21:06:26.960Z,8.10
2018-05-01T21:08:55.331Z,8.10
2018-05-01T21:11:23.819Z,8.10
2018-05-01T21:13:52.196Z,8.00
2018-05-01T21:16:21.307Z,8.00
2018-05-01T21:18:49.701Z,8.10
2018-05-01T21:21:18.127Z,8.10
2018-05-01T21:23:46.672Z,8.00
2018-05-01T21:26:15.043Z,8.00
2018-05-01T21:28:43.527Z,8.00
2018-05-01T21:31:14.490Z,8.00
2018-05-01T21:33:42.887Z,7.90
2018-05-01T21:36:11.245Z,7.90
2018-05-01T21:38:39.636Z,8.00
2018-05-01T21:41:08.064Z,8.10
2018-05-01T21:43:36.627Z,8.00
2018-05-01T21:46:05.030Z,8.00
2018-05-01T21:48:33.385Z,8.00
2018-05-01T21:51:01.771Z,8.00
2018-05-01T21:53:30.153Z,8.00
2018-05-01T21:55:58.532Z,8.00
2018-05-01T21:58:26.907Z,8.00
2018-05-01T22:00:55.291Z,8.00
2018-05-01T22:03:23.710Z,8.00
2018-05-01T22:05:52.865Z,8.10
2018-05-01T22:08:22.216Z,8.10
2018-05-01T22:10:53.012Z,8.20
2018-05-01T22:13:21.415Z,8.10
2018-05-01T22:15:49.972Z,8.20
2018-05-01T22:18:19.283Z,8.20
2018-05-01T22:20:47.696Z,8.20
2018-05-01T22:23:16.135Z,8.20
2018-05-01T22:25:44.552Z,8.20
2018-05-01T22:28:13.897Z,8.20
2018-05-01T22:30:43.159Z,8.30
2018-05-01T22:33:12.476Z,8.20
2018-05-01T22:35:40.989Z,8.20
2018-05-01T22:38:09.562Z,8.20
2018-05-01T22:40:39.207Z,8.30
2018-05-01T22:43:07.561Z,8.20
2018-05-01T22:45:36.105Z,8.20
2018-05-01T22:48:04.681Z,8.30
2018-05-01T22:50:33.119Z,8.20
2018-05-01T22:53:01.653Z,8.20
2018-05-01T22:55:30.085Z,8.30
2018-05-01T22:57:58.531Z,8.30
2018-05-01T23:00:27.859Z,8.40
2018-05-01T23:02:56.447Z,8.40
2018-05-01T23:05:24.826Z,8.50
2018-05-01T23:07:53.299Z,8.40
2018-05-01T23:10:22.650Z,8.50
2018-05-01T23:12:51.035Z,8.40
2018-05-01T23:15:19.487Z,8.40
2018-05-01T23:17:48.797Z,8.50
2018-05-01T23:20:18.332Z,8.50
2018-05-01T23:22:46.887Z,8.50
2018-05-01T23:25:15.407Z,8.50
2018-05-01T23:27:44.707Z,8.40
2018-05-01T23:30:14.011Z,8.40
2018-05-01T23:32:43.195Z,8.50
2018-05-01T23:35:12.287Z,8.50
2018-05-01T23:37:40.691Z,8.50
2018-05-01T23:40:09.082Z,8.50
2018-05-01T23:42:37.485Z,8.50
2018-05-01T23:45:05.851Z,8.40
2018-05-01T23:47:34.283Z,8.40
2018-05-01T23:50:03.429Z,8.50
2018-05-01T23:52:32.591Z,8.50
2018-05-01T23:55:01.017Z,8.50
2018-05-01T23:57:29.575Z,8.60
2018-05-01T23:59:57.966Z,8.60
